sensor_id;sensor_type;location;lat;lon;timestamp;temperature;humidity
31527;DHT22;18136;42.236;-73.040;2023-04-09T00:01:06;4.30;72.40
31527;DHT22;18136;42.236;-73.040;2023-04-09T00:03:33;4.20;73.30
31527;DHT22;18136;42.236;-73.040;2023-04-09T00:06:00;4.10;73.20
31527;DHT22;18136;42.236;-73.040;2023-04-09T00:08:27;4.10;73.90
31527;DHT22;18136;42.236;-73.040;2023-04-09T00:10:53;4.00;75.30
31527;DHT22;18136;42.236;-73.040;2023-04-09T00:13:20;3.90;76.00
31527;DHT22;18136;42.236;-73.040;2023-04-09T00:15:46;3.90;77.60
31527;DHT22;18136;42.236;-73.040;2023-04-09T00:18:13;3.80;77.90
31527;DHT22;18136;42.236;-73.040;2023-04-09T00:20:39;3.70;78.50
31527;DHT22;18136;42.236;-73.040;2023-04-09T00:23:05;3.60;79.30
31527;DHT22;18136;42.236;-73.040;2023-04-09T00:25:34;3.50;79.40
31527;DHT22;18136;42.236;-73.040;2023-04-09T00:28:01;3.50;80.00
31527;DHT22;18136;42.236;-73.040;2023-04-09T00:30:30;3.40;79.30
31527;DHT22;18136;42.236;-73.040;2023-04-09T00:32:56;3.30;80.10
31527;DHT22;18136;42.236;-73.040;2023-04-09T00:35:23;3.30;81.40
31527;DHT22;18136;42.236;-73.040;2023-04-09T00:37:54;3.20;81.30
31527;DHT22;18136;42.236;-73.040;2023-04-09T00:40:20;3.10;81.00
31527;DHT22;18136;42.236;-73.040;2023-04-09T00:42:46;3.10;80.80
31527;DHT22;18136;42.236;-73.040;2023-04-09T00:45:12;3.00;80.40
31527;DHT22;18136;42.236;-73.040;2023-04-09T00:47:39;2.90;80.40
31527;DHT22;18136;42.236;-73.040;2023-04-09T00:50:05;2.80;80.90
31527;DHT22;18136;42.236;-73.040;2023-04-09T00:52:32;2.80;81.90
31527;DHT22;18136;42.236;-73.040;2023-04-09T00:55:03;2.70;83.20
31527;DHT22;18136;42.236;-73.040;2023-04-09T00:57:29;2.60;84.50
31527;DHT22;18136;42.236;-73.040;2023-04-09T00:59:56;2.50;84.80
31527;DHT22;18136;42.236;-73.040;2023-04-09T01:02:22;2.40;85.80
31527;DHT22;18136;42.236;-73.040;2023-04-09T01:04:49;2.40;86.00
31527;DHT22;18136;42.236;-73.040;2023-04-09T01:15:24;2.20;87.40
31527;DHT22;18136;42.236;-73.040;2023-04-09T01:23:26;1.90;87.90
31527;DHT22;18136;42.236;-73.040;2023-04-09T01:26:09;1.90;87.90
31527;DHT22;18136;42.236;-73.040;2023-04-09T01:28:44;1.80;88.90
31527;DHT22;18136;42.236;-73.040;2023-04-09T01:31:17;1.70;89.40
31527;DHT22;18136;42.236;-73.040;2023-04-09T01:33:45;1.60;88.90
31527;DHT22;18136;42.236;-73.040;2023-04-09T01:36:12;1.60;90.00
31527;DHT22;18136;42.236;-73.040;2023-04-09T01:38:41;1.60;90.80
31527;DHT22;18136;42.236;-73.040;2023-04-09T01:41:11;1.50;91.10
31527;DHT22;18136;42.236;-73.040;2023-04-09T01:43:39;1.50;91.00
31527;DHT22;18136;42.236;-73.040;2023-04-09T01:46:06;1.50;90.80
31527;DHT22;18136;42.236;-73.040;2023-04-09T01:48:33;1.40;90.30
31527;DHT22;18136;42.236;-73.040;2023-04-09T01:50:59;1.40;90.50
31527;DHT22;18136;42.236;-73.040;2023-04-09T01:53:26;1.30;90.40
31527;DHT22;18136;42.236;-73.040;2023-04-09T01:55:59;1.20;90.30
31527;DHT22;18136;42.236;-73.040;2023-04-09T01:58:26;1.20;90.80
31527;DHT22;18136;42.236;-73.040;2023-04-09T02:00:59;1.20;91.30
31527;DHT22;18136;42.236;-73.040;2023-04-09T02:03:34;1.10;91.50
31527;DHT22;18136;42.236;-73.040;2023-04-09T02:08:38;1.00;91.50
31527;DHT22;18136;42.236;-73.040;2023-04-09T02:11:07;1.00;91.30
31527;DHT22;18136;42.236;-73.040;2023-04-09T02:13:36;0.90;91.20
31527;DHT22;18136;42.236;-73.040;2023-04-09T02:16:07;0.90;91.40
31527;DHT22;18136;42.236;-73.040;2023-04-09T02:18:33;0.90;91.60
31527;DHT22;18136;42.236;-73.040;2023-04-09T02:21:00;0.90;92.20
31527;DHT22;18136;42.236;-73.040;2023-04-09T02:23:26;0.80;92.50
31527;DHT22;18136;42.236;-73.040;2023-04-09T02:25:52;0.80;92.50
31527;DHT22;18136;42.236;-73.040;2023-04-09T02:28:18;0.80;92.00
31527;DHT22;18136;42.236;-73.040;2023-04-09T02:30:45;0.80;91.60
31527;DHT22;18136;42.236;-73.040;2023-04-09T02:33:11;0.70;91.00
31527;DHT22;18136;42.236;-73.040;2023-04-09T02:35:37;0.70;91.30
31527;DHT22;18136;42.236;-73.040;2023-04-09T02:38:03;0.70;91.40
31527;DHT22;18136;42.236;-73.040;2023-04-09T02:40:29;0.70;91.60
31527;DHT22;18136;42.236;-73.040;2023-04-09T02:42:56;0.70;91.50
31527;DHT22;18136;42.236;-73.040;2023-04-09T02:45:22;0.70;92.10
31527;DHT22;18136;42.236;-73.040;2023-04-09T02:47:48;0.60;92.30
31527;DHT22;18136;42.236;-73.040;2023-04-09T02:50:14;0.60;92.10
31527;DHT22;18136;42.236;-73.040;2023-04-09T02:52:40;0.60;91.90
31527;DHT22;18136;42.236;-73.040;2023-04-09T02:55:06;0.50;91.90
31527;DHT22;18136;42.236;-73.040;2023-04-09T02:57:33;0.60;91.20
31527;DHT22;18136;42.236;-73.040;2023-04-09T02:59:59;0.50;91.30
31527;DHT22;18136;42.236;-73.040;2023-04-09T03:02:25;0.50;91.00
31527;DHT22;18136;42.236;-73.040;2023-04-09T03:04:51;0.50;90.70
31527;DHT22;18136;42.236;-73.040;2023-04-09T03:07:17;0.40;90.50
31527;DHT22;18136;42.236;-73.040;2023-04-09T03:09:43;0.40;90.30
31527;DHT22;18136;42.236;-73.040;2023-04-09T03:12:09;0.40;89.00
31527;DHT22;18136;42.236;-73.040;2023-04-09T03:14:35;0.40;89.50
31527;DHT22;18136;42.236;-73.040;2023-04-09T03:17:01;0.40;90.00
31527;DHT22;18136;42.236;-73.040;2023-04-09T03:19:29;0.30;89.10
31527;DHT22;18136;42.236;-73.040;2023-04-09T03:21:56;0.30;87.70
31527;DHT22;18136;42.236;-73.040;2023-04-09T03:24:22;0.30;88.20
31527;DHT22;18136;42.236;-73.040;2023-04-09T03:26:48;0.30;89.80
31527;DHT22;18136;42.236;-73.040;2023-04-09T03:29:14;0.30;90.60
31527;DHT22;18136;42.236;-73.040;2023-04-09T03:31:40;0.30;91.40
31527;DHT22;18136;42.236;-73.040;2023-04-09T03:34:06;0.30;92.30
31527;DHT22;18136;42.236;-73.040;2023-04-09T03:36:32;0.30;92.90
31527;DHT22;18136;42.236;-73.040;2023-04-09T03:38:58;0.30;93.00
31527;DHT22;18136;42.236;-73.040;2023-04-09T03:41:26;0.30;93.30
31527;DHT22;18136;42.236;-73.040;2023-04-09T03:43:52;0.20;93.30
31527;DHT22;18136;42.236;-73.040;2023-04-09T03:46:18;0.30;93.40
31527;DHT22;18136;42.236;-73.040;2023-04-09T03:48:44;0.30;93.30
31527;DHT22;18136;42.236;-73.040;2023-04-09T03:51:15;0.30;93.60
31527;DHT22;18136;42.236;-73.040;2023-04-09T03:53:41;0.30;93.50
31527;DHT22;18136;42.236;-73.040;2023-04-09T03:56:08;0.30;92.70
31527;DHT22;18136;42.236;-73.040;2023-04-09T03:58:35;0.20;92.10
31527;DHT22;18136;42.236;-73.040;2023-04-09T04:01:02;0.20;91.90
31527;DHT22;18136;42.236;-73.040;2023-04-09T04:03:28;0.20;91.90
31527;DHT22;18136;42.236;-73.040;2023-04-09T04:06:00;0.10;91.70
31527;DHT22;18136;42.236;-73.040;2023-04-09T04:08:27;0.10;91.80
31527;DHT22;18136;42.236;-73.040;2023-04-09T04:10:53;0.10;92.20
31527;DHT22;18136;42.236;-73.040;2023-04-09T04:13:19;0.00;92.90
31527;DHT22;18136;42.236;-73.040;2023-04-09T04:15:48;0.00;93.40
31527;DHT22;18136;42.236;-73.040;2023-04-09T04:18:14;0.00;94.00
31527;DHT22;18136;42.236;-73.040;2023-04-09T04:20:40;0.00;93.80
31527;DHT22;18136;42.236;-73.040;2023-04-09T04:23:06;0.00;93.10
31527;DHT22;18136;42.236;-73.040;2023-04-09T04:25:32;-0.10;92.10
31527;DHT22;18136;42.236;-73.040;2023-04-09T04:27:58;-0.20;91.70
31527;DHT22;18136;42.236;-73.040;2023-04-09T04:30:24;-0.20;91.50
31527;DHT22;18136;42.236;-73.040;2023-04-09T04:32:50;-0.20;91.60
31527;DHT22;18136;42.236;-73.040;2023-04-09T04:35:16;-0.30;91.70
31527;DHT22;18136;42.236;-73.040;2023-04-09T04:37:46;-0.30;91.60
31527;DHT22;18136;42.236;-73.040;2023-04-09T04:40:14;-0.30;91.50
31527;DHT22;18136;42.236;-73.040;2023-04-09T04:42:40;-0.30;91.40
31527;DHT22;18136;42.236;-73.040;2023-04-09T04:45:06;-0.40;91.10
31527;DHT22;18136;42.236;-73.040;2023-04-09T04:47:32;-0.40;91.00
31527;DHT22;18136;42.236;-73.040;2023-04-09T04:49:58;-0.40;91.10
31527;DHT22;18136;42.236;-73.040;2023-04-09T04:52:25;-0.40;91.50
31527;DHT22;18136;42.236;-73.040;2023-04-09T04:54:51;-0.40;91.70
31527;DHT22;18136;42.236;-73.040;2023-04-09T04:57:17;-0.50;91.70
31527;DHT22;18136;42.236;-73.040;2023-04-09T04:59:43;-0.50;92.00
31527;DHT22;18136;42.236;-73.040;2023-04-09T05:02:09;-0.50;92.10
31527;DHT22;18136;42.236;-73.040;2023-04-09T05:04:36;-0.50;92.60
31527;DHT22;18136;42.236;-73.040;2023-04-09T05:07:02;-0.50;92.70
31527;DHT22;18136;42.236;-73.040;2023-04-09T05:09:28;-0.50;92.80
31527;DHT22;18136;42.236;-73.040;2023-04-09T05:11:54;-0.50;93.20
31527;DHT22;18136;42.236;-73.040;2023-04-09T05:14:24;-0.50;92.90
31527;DHT22;18136;42.236;-73.040;2023-04-09T05:16:51;-0.50;93.20
31527;DHT22;18136;42.236;-73.040;2023-04-09T05:19:19;-0.50;93.40
31527;DHT22;18136;42.236;-73.040;2023-04-09T05:21:45;-0.50;93.40
31527;DHT22;18136;42.236;-73.040;2023-04-09T05:24:11;-0.50;93.30
31527;DHT22;18136;42.236;-73.040;2023-04-09T05:26:37;-0.50;93.50
31527;DHT22;18136;42.236;-73.040;2023-04-09T05:29:03;-0.50;93.60
31527;DHT22;18136;42.236;-73.040;2023-04-09T05:31:30;-0.40;93.50
31527;DHT22;18136;42.236;-73.040;2023-04-09T05:33:56;-0.40;93.80
31527;DHT22;18136;42.236;-73.040;2023-04-09T05:36:22;-0.50;94.60
31527;DHT22;18136;42.236;-73.040;2023-04-09T05:38:48;-0.40;94.90
31527;DHT22;18136;42.236;-73.040;2023-04-09T05:41:14;-0.40;95.10
31527;DHT22;18136;42.236;-73.040;2023-04-09T05:43:40;-0.40;95.40
31527;DHT22;18136;42.236;-73.040;2023-04-09T05:46:07;-0.40;95.80
31527;DHT22;18136;42.236;-73.040;2023-04-09T05:48:39;-0.40;96.30
31527;DHT22;18136;42.236;-73.040;2023-04-09T05:51:06;-0.40;96.80
31527;DHT22;18136;42.236;-73.040;2023-04-09T05:53:32;-0.30;97.20
31527;DHT22;18136;42.236;-73.040;2023-04-09T05:56:01;-0.30;97.40
31527;DHT22;18136;42.236;-73.040;2023-04-09T05:58:29;-0.30;97.40
31527;DHT22;18136;42.236;-73.040;2023-04-09T06:00:56;-0.30;97.70
31527;DHT22;18136;42.236;-73.040;2023-04-09T06:03:22;-0.30;97.70
31527;DHT22;18136;42.236;-73.040;2023-04-09T06:05:48;-0.30;97.80
31527;DHT22;18136;42.236;-73.040;2023-04-09T06:08:14;-0.30;98.10
31527;DHT22;18136;42.236;-73.040;2023-04-09T06:10:40;-0.30;98.20
31527;DHT22;18136;42.236;-73.040;2023-04-09T06:13:06;-0.30;98.20
31527;DHT22;18136;42.236;-73.040;2023-04-09T06:15:32;-0.30;98.40
31527;DHT22;18136;42.236;-73.040;2023-04-09T06:17:58;-0.30;98.50
31527;DHT22;18136;42.236;-73.040;2023-04-09T06:20:24;-0.20;98.90
31527;DHT22;18136;42.236;-73.040;2023-04-09T06:22:50;-0.20;98.80
31527;DHT22;18136;42.236;-73.040;2023-04-09T06:25:16;-0.10;98.70
31527;DHT22;18136;42.236;-73.040;2023-04-09T06:27:42;-0.10;98.10
31527;DHT22;18136;42.236;-73.040;2023-04-09T06:30:09;-0.10;97.80
31527;DHT22;18136;42.236;-73.040;2023-04-09T06:32:35;-0.10;97.40
31527;DHT22;18136;42.236;-73.040;2023-04-09T06:35:01;-0.10;97.50
31527;DHT22;18136;42.236;-73.040;2023-04-09T06:37:28;-0.10;97.80
31527;DHT22;18136;42.236;-73.040;2023-04-09T06:39:54;-0.10;97.50
31527;DHT22;18136;42.236;-73.040;2023-04-09T06:42:20;-0.10;97.50
31527;DHT22;18136;42.236;-73.040;2023-04-09T06:44:46;-0.10;97.30
31527;DHT22;18136;42.236;-73.040;2023-04-09T06:47:12;-0.10;97.40
31527;DHT22;18136;42.236;-73.040;2023-04-09T06:49:38;-0.10;97.00
31527;DHT22;18136;42.236;-73.040;2023-04-09T06:52:04;-0.10;96.10
31527;DHT22;18136;42.236;-73.040;2023-04-09T06:54:32;-0.10;96.10
31527;DHT22;18136;42.236;-73.040;2023-04-09T06:56:58;-0.10;96.80
31527;DHT22;18136;42.236;-73.040;2023-04-09T06:59:24;-0.10;97.00
31527;DHT22;18136;42.236;-73.040;2023-04-09T07:01:50;-0.10;97.10
31527;DHT22;18136;42.236;-73.040;2023-04-09T07:04:16;0.00;97.20
31527;DHT22;18136;42.236;-73.040;2023-04-09T07:06:42;0.00;96.70
31527;DHT22;18136;42.236;-73.040;2023-04-09T07:09:08;0.00;96.60
31527;DHT22;18136;42.236;-73.040;2023-04-09T07:11:34;0.00;97.20
31527;DHT22;18136;42.236;-73.040;2023-04-09T07:14:00;0.00;97.10
31527;DHT22;18136;42.236;-73.040;2023-04-09T07:16:26;0.00;96.90
31527;DHT22;18136;42.236;-73.040;2023-04-09T07:18:52;-0.10;97.40
31527;DHT22;18136;42.236;-73.040;2023-04-09T07:21:18;-0.10;97.70
31527;DHT22;18136;42.236;-73.040;2023-04-09T07:23:45;-0.20;97.90
31527;DHT22;18136;42.236;-73.040;2023-04-09T07:26:11;-0.20;97.80
31527;DHT22;18136;42.236;-73.040;2023-04-09T07:28:37;-0.20;98.20
31527;DHT22;18136;42.236;-73.040;2023-04-09T07:31:03;-0.20;98.20
31527;DHT22;18136;42.236;-73.040;2023-04-09T07:33:29;-0.20;98.00
31527;DHT22;18136;42.236;-73.040;2023-04-09T07:35:55;-0.30;97.70
31527;DHT22;18136;42.236;-73.040;2023-04-09T07:38:22;-0.30;97.90
31527;DHT22;18136;42.236;-73.040;2023-04-09T07:40:48;-0.30;98.00
31527;DHT22;18136;42.236;-73.040;2023-04-09T07:43:14;-0.30;98.20
31527;DHT22;18136;42.236;-73.040;2023-04-09T07:45:41;-0.30;98.60
31527;DHT22;18136;42.236;-73.040;2023-04-09T07:48:09;-0.30;98.90
31527;DHT22;18136;42.236;-73.040;2023-04-09T07:50:35;-0.30;99.00
31527;DHT22;18136;42.236;-73.040;2023-04-09T07:53:01;-0.40;99.10
31527;DHT22;18136;42.236;-73.040;2023-04-09T07:55:27;-0.40;98.90
31527;DHT22;18136;42.236;-73.040;2023-04-09T07:57:53;-0.50;99.10
31527;DHT22;18136;42.236;-73.040;2023-04-09T08:00:19;-0.50;99.20
31527;DHT22;18136;42.236;-73.040;2023-04-09T08:02:45;-0.50;99.30
31527;DHT22;18136;42.236;-73.040;2023-04-09T08:05:11;-0.50;99.30
31527;DHT22;18136;42.236;-73.040;2023-04-09T08:07:37;-0.60;99.10
31527;DHT22;18136;42.236;-73.040;2023-04-09T08:10:05;-0.60;98.70
31527;DHT22;18136;42.236;-73.040;2023-04-09T08:12:31;-0.60;98.70
31527;DHT22;18136;42.236;-73.040;2023-04-09T08:14:57;-0.60;98.60
31527;DHT22;18136;42.236;-73.040;2023-04-09T08:17:23;-0.60;97.90
31527;DHT22;18136;42.236;-73.040;2023-04-09T08:19:50;-0.70;98.00
31527;DHT22;18136;42.236;-73.040;2023-04-09T08:22:16;-0.70;98.20
31527;DHT22;18136;42.236;-73.040;2023-04-09T08:24:42;-0.70;98.40
31527;DHT22;18136;42.236;-73.040;2023-04-09T08:27:08;-0.70;98.40
31527;DHT22;18136;42.236;-73.040;2023-04-09T08:29:35;-0.70;98.30
31527;DHT22;18136;42.236;-73.040;2023-04-09T08:32:01;-0.70;98.10
31527;DHT22;18136;42.236;-73.040;2023-04-09T08:34:27;-0.70;98.00
31527;DHT22;18136;42.236;-73.040;2023-04-09T08:36:53;-0.70;98.00
31527;DHT22;18136;42.236;-73.040;2023-04-09T08:39:19;-0.70;97.80
31527;DHT22;18136;42.236;-73.040;2023-04-09T08:41:45;-0.70;97.70
31527;DHT22;18136;42.236;-73.040;2023-04-09T08:44:13;-0.80;97.70
31527;DHT22;18136;42.236;-73.040;2023-04-09T08:46:39;-0.80;97.90
31527;DHT22;18136;42.236;-73.040;2023-04-09T08:49:07;-0.80;97.90
31527;DHT22;18136;42.236;-73.040;2023-04-09T08:51:35;-0.80;97.90
31527;DHT22;18136;42.236;-73.040;2023-04-09T08:54:01;-0.90;98.00
31527;DHT22;18136;42.236;-73.040;2023-04-09T08:56:28;-0.80;97.90
31527;DHT22;18136;42.236;-73.040;2023-04-09T08:58:54;-0.90;97.90
31527;DHT22;18136;42.236;-73.040;2023-04-09T09:01:30;-0.90;97.20
31527;DHT22;18136;42.236;-73.040;2023-04-09T09:04:02;-0.90;97.40
31527;DHT22;18136;42.236;-73.040;2023-04-09T09:06:35;-0.90;96.70
31527;DHT22;18136;42.236;-73.040;2023-04-09T09:11:30;-0.90;96.90
31527;DHT22;18136;42.236;-73.040;2023-04-09T09:14:06;-0.90;97.00
31527;DHT22;18136;42.236;-73.040;2023-04-09T09:16:34;-0.90;97.20
31527;DHT22;18136;42.236;-73.040;2023-04-09T09:19:04;-0.90;97.40
31527;DHT22;18136;42.236;-73.040;2023-04-09T09:21:31;-0.90;97.00
31527;DHT22;18136;42.236;-73.040;2023-04-09T09:23:58;-1.00;96.90
31527;DHT22;18136;42.236;-73.040;2023-04-09T09:26:26;-0.90;96.70
31527;DHT22;18136;42.236;-73.040;2023-04-09T09:28:53;-1.00;97.20
31527;DHT22;18136;42.236;-73.040;2023-04-09T09:31:21;-1.00;97.60
31527;DHT22;18136;42.236;-73.040;2023-04-09T09:33:48;-1.00;97.60
31527;DHT22;18136;42.236;-73.040;2023-04-09T09:36:28;-1.00;97.50
31527;DHT22;18136;42.236;-73.040;2023-04-09T09:38:57;-1.00;97.10
31527;DHT22;18136;42.236;-73.040;2023-04-09T09:41:24;-1.10;96.80
31527;DHT22;18136;42.236;-73.040;2023-04-09T09:43:51;-1.10;96.50
31527;DHT22;18136;42.236;-73.040;2023-04-09T09:46:17;-1.10;96.10
31527;DHT22;18136;42.236;-73.040;2023-04-09T09:48:43;-1.10;96.10
31527;DHT22;18136;42.236;-73.040;2023-04-09T09:51:14;-1.10;96.70
31527;DHT22;18136;42.236;-73.040;2023-04-09T09:53:43;-1.10;96.50
31527;DHT22;18136;42.236;-73.040;2023-04-09T09:56:20;-1.10;96.10
31527;DHT22;18136;42.236;-73.040;2023-04-09T09:59:06;-1.10;96.60
31527;DHT22;18136;42.236;-73.040;2023-04-09T10:01:33;-1.10;96.40
31527;DHT22;18136;42.236;-73.040;2023-04-09T10:04:05;-1.10;96.60
31527;DHT22;18136;42.236;-73.040;2023-04-09T10:06:34;-1.20;96.60
31527;DHT22;18136;42.236;-73.040;2023-04-09T10:09:03;-1.20;96.40
31527;DHT22;18136;42.236;-73.040;2023-04-09T10:11:33;-1.20;96.60
31527;DHT22;18136;42.236;-73.040;2023-04-09T10:14:01;-1.30;96.50
31527;DHT22;18136;42.236;-73.040;2023-04-09T10:16:27;-1.30;96.90
31527;DHT22;18136;42.236;-73.040;2023-04-09T10:18:57;-1.30;97.00
31527;DHT22;18136;42.236;-73.040;2023-04-09T10:24:12;-1.40;97.90
31527;DHT22;18136;42.236;-73.040;2023-04-09T10:26:42;-1.30;98.00
31527;DHT22;18136;42.236;-73.040;2023-04-09T10:29:15;-1.40;97.60
31527;DHT22;18136;42.236;-73.040;2023-04-09T10:34:21;-1.50;97.40
31527;DHT22;18136;42.236;-73.040;2023-04-09T10:36:51;-1.50;97.20
31527;DHT22;18136;42.236;-73.040;2023-04-09T10:39:25;-1.50;97.50
31527;DHT22;18136;42.236;-73.040;2023-04-09T10:41:52;-1.50;97.80
31527;DHT22;18136;42.236;-73.040;2023-04-09T10:44:26;-1.50;97.90
31527;DHT22;18136;42.236;-73.040;2023-04-09T10:46:53;-1.60;98.10
31527;DHT22;18136;42.236;-73.040;2023-04-09T10:49:21;-1.60;98.10
31527;DHT22;18136;42.236;-73.040;2023-04-09T10:52:02;-1.60;97.60
31527;DHT22;18136;42.236;-73.040;2023-04-09T10:57:19;-1.60;97.90
31527;DHT22;18136;42.236;-73.040;2023-04-09T10:59:53;-1.70;98.40
31527;DHT22;18136;42.236;-73.040;2023-04-09T11:07:46;-1.60;98.30
31527;DHT22;18136;42.236;-73.040;2023-04-09T11:10:14;-1.70;98.10
31527;DHT22;18136;42.236;-73.040;2023-04-09T11:12:40;-1.60;98.70
31527;DHT22;18136;42.236;-73.040;2023-04-09T11:15:15;-1.60;98.30
31527;DHT22;18136;42.236;-73.040;2023-04-09T11:17:42;-1.60;97.70
31527;DHT22;18136;42.236;-73.040;2023-04-09T11:20:09;-1.60;97.80
31527;DHT22;18136;42.236;-73.040;2023-04-09T11:22:35;-1.60;97.20
31527;DHT22;18136;42.236;-73.040;2023-04-09T11:25:02;-1.60;97.10
31527;DHT22;18136;42.236;-73.040;2023-04-09T11:27:29;-1.50;97.20
31527;DHT22;18136;42.236;-73.040;2023-04-09T11:29:55;-1.50;97.30
31527;DHT22;18136;42.236;-73.040;2023-04-09T11:32:31;-1.50;97.20
31527;DHT22;18136;42.236;-73.040;2023-04-09T11:34:57;-1.50;97.10
31527;DHT22;18136;42.236;-73.040;2023-04-09T11:37:24;-1.50;96.80
31527;DHT22;18136;42.236;-73.040;2023-04-09T11:39:50;-1.40;96.70
31527;DHT22;18136;42.236;-73.040;2023-04-09T11:42:20;-1.40;96.60
31527;DHT22;18136;42.236;-73.040;2023-04-09T11:44:51;-1.30;96.90
31527;DHT22;18136;42.236;-73.040;2023-04-09T11:47:18;-1.30;96.10
31527;DHT22;18136;42.236;-73.040;2023-04-09T11:49:46;-1.20;96.30
31527;DHT22;18136;42.236;-73.040;2023-04-09T11:52:13;-1.20;95.90
31527;DHT22;18136;42.236;-73.040;2023-04-09T11:54:41;-1.10;96.00
31527;DHT22;18136;42.236;-73.040;2023-04-09T11:57:07;-1.00;95.80
31527;DHT22;18136;42.236;-73.040;2023-04-09T11:59:37;-0.90;95.20
31527;DHT22;18136;42.236;-73.040;2023-04-09T12:02:05;-0.80;94.70
31527;DHT22;18136;42.236;-73.040;2023-04-09T12:04:32;-0.70;95.20
31527;DHT22;18136;42.236;-73.040;2023-04-09T12:06:58;-0.70;95.10
31527;DHT22;18136;42.236;-73.040;2023-04-09T12:09:24;-0.60;93.90
31527;DHT22;18136;42.236;-73.040;2023-04-09T12:11:50;-0.50;93.60
31527;DHT22;18136;42.236;-73.040;2023-04-09T12:14:18;-0.50;94.60
31527;DHT22;18136;42.236;-73.040;2023-04-09T12:16:50;-0.30;94.40
31527;DHT22;18136;42.236;-73.040;2023-04-09T12:19:17;-0.30;94.50
31527;DHT22;18136;42.236;-73.040;2023-04-09T12:21:49;-0.20;94.80
31527;DHT22;18136;42.236;-73.040;2023-04-09T12:24:17;-0.10;94.70
31527;DHT22;18136;42.236;-73.040;2023-04-09T12:26:47;0.10;94.70
31527;DHT22;18136;42.236;-73.040;2023-04-09T12:29:18;0.20;93.80
31527;DHT22;18136;42.236;-73.040;2023-04-09T12:31:45;0.30;93.80
31527;DHT22;18136;42.236;-73.040;2023-04-09T12:34:12;0.30;93.90
31527;DHT22;18136;42.236;-73.040;2023-04-09T12:36:39;0.50;92.90
31527;DHT22;18136;42.236;-73.040;2023-04-09T12:39:08;0.60;93.30
31527;DHT22;18136;42.236;-73.040;2023-04-09T12:41:35;0.70;93.40
31527;DHT22;18136;42.236;-73.040;2023-04-09T12:44:01;0.80;92.40
31527;DHT22;18136;42.236;-73.040;2023-04-09T12:46:27;1.00;92.80
31527;DHT22;18136;42.236;-73.040;2023-04-09T12:48:54;1.10;92.70
31527;DHT22;18136;42.236;-73.040;2023-04-09T12:51:20;1.20;91.30
31527;DHT22;18136;42.236;-73.040;2023-04-09T12:53:46;1.30;90.50
31527;DHT22;18136;42.236;-73.040;2023-04-09T12:56:12;1.50;91.20
31527;DHT22;18136;42.236;-73.040;2023-04-09T12:58:38;1.70;91.40
31527;DHT22;18136;42.236;-73.040;2023-04-09T13:01:04;1.80;90.70
31527;DHT22;18136;42.236;-73.040;2023-04-09T13:03:31;1.90;87.20
31527;DHT22;18136;42.236;-73.040;2023-04-09T13:05:57;2.10;88.10
31527;DHT22;18136;42.236;-73.040;2023-04-09T13:08:23;2.20;90.00
31527;DHT22;18136;42.236;-73.040;2023-04-09T13:10:50;2.40;87.40
31527;DHT22;18136;42.236;-73.040;2023-04-09T13:13:16;2.60;87.80
31527;DHT22;18136;42.236;-73.040;2023-04-09T13:15:42;2.70;87.10
31527;DHT22;18136;42.236;-73.040;2023-04-09T13:18:11;2.90;89.70
31527;DHT22;18136;42.236;-73.040;2023-04-09T13:20:37;3.10;85.80
31527;DHT22;18136;42.236;-73.040;2023-04-09T13:23:03;3.20;85.70
31527;DHT22;18136;42.236;-73.040;2023-04-09T13:25:29;3.40;87.50
31527;DHT22;18136;42.236;-73.040;2023-04-09T13:27:55;3.60;84.70
31527;DHT22;18136;42.236;-73.040;2023-04-09T13:30:22;3.70;81.40
31527;DHT22;18136;42.236;-73.040;2023-04-09T13:32:48;3.90;84.30
31527;DHT22;18136;42.236;-73.040;2023-04-09T13:35:14;4.10;83.10
31527;DHT22;18136;42.236;-73.040;2023-04-09T13:37:40;4.20;80.20
31527;DHT22;18136;42.236;-73.040;2023-04-09T13:40:08;4.30;78.90
31527;DHT22;18136;42.236;-73.040;2023-04-09T13:42:34;4.40;78.90
31527;DHT22;18136;42.236;-73.040;2023-04-09T13:45:02;4.60;82.70
31527;DHT22;18136;42.236;-73.040;2023-04-09T13:47:29;4.90;81.00
31527;DHT22;18136;42.236;-73.040;2023-04-09T13:49:55;5.10;82.80
31527;DHT22;18136;42.236;-73.040;2023-04-09T13:52:21;5.20;78.40
31527;DHT22;18136;42.236;-73.040;2023-04-09T13:54:48;5.40;79.00
31527;DHT22;18136;42.236;-73.040;2023-04-09T13:57:14;5.50;75.40
31527;DHT22;18136;42.236;-73.040;2023-04-09T13:59:41;5.60;78.80
31527;DHT22;18136;42.236;-73.040;2023-04-09T14:02:08;5.80;73.80
31527;DHT22;18136;42.236;-73.040;2023-04-09T14:04:34;5.90;76.10
31527;DHT22;18136;42.236;-73.040;2023-04-09T14:07:00;6.10;75.70
31527;DHT22;18136;42.236;-73.040;2023-04-09T14:09:26;6.30;79.60
31527;DHT22;18136;42.236;-73.040;2023-04-09T14:11:53;6.60;77.30
31527;DHT22;18136;42.236;-73.040;2023-04-09T14:14:19;6.80;73.30
31527;DHT22;18136;42.236;-73.040;2023-04-09T14:16:46;6.90;76.70
31527;DHT22;18136;42.236;-73.040;2023-04-09T14:19:13;7.20;77.90
31527;DHT22;18136;42.236;-73.040;2023-04-09T14:21:39;7.30;74.80
31527;DHT22;18136;42.236;-73.040;2023-04-09T14:24:05;7.50;76.50
31527;DHT22;18136;42.236;-73.040;2023-04-09T14:26:32;7.60;73.90
31527;DHT22;18136;42.236;-73.040;2023-04-09T14:28:58;7.60;71.90
31527;DHT22;18136;42.236;-73.040;2023-04-09T14:31:24;7.80;76.20
31527;DHT22;18136;42.236;-73.040;2023-04-09T14:33:50;8.00;75.10
31527;DHT22;18136;42.236;-73.040;2023-04-09T14:36:16;8.10;72.30
31527;DHT22;18136;42.236;-73.040;2023-04-09T14:38:43;8.20;72.90
31527;DHT22;18136;42.236;-73.040;2023-04-09T14:41:09;8.30;67.70
31527;DHT22;18136;42.236;-73.040;2023-04-09T14:43:35;8.20;69.10
31527;DHT22;18136;42.236;-73.040;2023-04-09T14:46:01;8.20;72.70
31527;DHT22;18136;42.236;-73.040;2023-04-09T14:48:28;8.50;70.60
31527;DHT22;18136;42.236;-73.040;2023-04-09T14:50:54;8.60;69.60
31527;DHT22;18136;42.236;-73.040;2023-04-09T14:53:20;8.80;67.70
31527;DHT22;18136;42.236;-73.040;2023-04-09T14:55:46;8.90;69.00
31527;DHT22;18136;42.236;-73.040;2023-04-09T14:58:12;9.10;67.30
31527;DHT22;18136;42.236;-73.040;2023-04-09T15:00:38;9.30;68.90
31527;DHT22;18136;42.236;-73.040;2023-04-09T15:03:05;9.50;69.80
31527;DHT22;18136;42.236;-73.040;2023-04-09T15:05:31;9.60;65.30
31527;DHT22;18136;42.236;-73.040;2023-04-09T15:07:58;9.70;69.10
31527;DHT22;18136;42.236;-73.040;2023-04-09T15:10:24;9.80;65.90
31527;DHT22;18136;42.236;-73.040;2023-04-09T15:12:50;10.00;68.40
31527;DHT22;18136;42.236;-73.040;2023-04-09T15:15:16;10.20;64.80
31527;DHT22;18136;42.236;-73.040;2023-04-09T15:17:42;10.20;62.50
31527;DHT22;18136;42.236;-73.040;2023-04-09T15:20:08;9.90;60.00
31527;DHT22;18136;42.236;-73.040;2023-04-09T15:22:35;9.70;63.30
31527;DHT22;18136;42.236;-73.040;2023-04-09T15:25:01;9.90;63.70
31527;DHT22;18136;42.236;-73.040;2023-04-09T15:27:27;10.00;63.40
31527;DHT22;18136;42.236;-73.040;2023-04-09T15:29:53;10.10;62.10
31527;DHT22;18136;42.236;-73.040;2023-04-09T15:32:20;10.30;64.70
31527;DHT22;18136;42.236;-73.040;2023-04-09T15:34:46;10.50;63.30
31527;DHT22;18136;42.236;-73.040;2023-04-09T15:37:12;10.60;61.30
31527;DHT22;18136;42.236;-73.040;2023-04-09T15:39:38;10.70;62.40